Time;durP1;ratioP1;P1;durP2;ratioP2;P2;SDS_P1;SDS_P2;PMS_P1;PMS_P2;Temp;Humidity;BMP_temperature;BMP_pressure;BME280_temperature;BME280_humidity;BME280_pressure;Samples;Min_cycle;Max_cycle;Signal;HPM_P1;HPM_P2
2024/02/01 00:00:18;;;;;;;9.48;7.68;;;7.10;99.90;;;;;;5137658;27;20289;-61
2024/02/01 00:02:45;;;;;;;9.25;6.47;;;7.10;99.90;;;;;;5137216;27;20215;-60
2024/02/01 00:05:12;;;;;;;9.30;6.85;;;7.10;99.90;;;;;;5135817;27;20199;-61
2024/02/01 00:07:38;;;;;;;8.70;7.13;;;7.20;99.90;;;;;;5136356;27;20601;-61
2024/02/01 00:10:06;;;;;;;10.57;7.13;;;7.20;99.90;;;;;;5136754;27;20195;-61
2024/02/01 00:12:33;;;;;;;9.05;7.25;;;7.20;99.90;;;;;;5135867;27;20252;-61
2024/02/01 00:15:01;;;;;;;8.48;7.53;;;7.20;99.90;;;;;;5140201;27;20221;-60
2024/02/01 00:17:28;;;;;;;8.18;7.38;;;7.20;99.90;;;;;;5140677;28;20223;-61
2024/02/01 00:19:55;;;;;;;7.57;6.88;;;7.20;99.90;;;;;;5139778;28;20210;-61
2024/02/01 00:22:21;;;;;;;7.97;7.05;;;7.20;99.90;;;;;;5139949;28;20515;-61
2024/02/01 00:24:49;;;;;;;11.73;7.13;;;7.20;99.90;;;;;;5138089;28;20288;-62
2024/02/01 00:27:16;;;;;;;8.57;7.50;;;7.30;99.90;;;;;;5138773;28;20201;-61
2024/02/01 00:29:43;;;;;;;8.02;7.13;;;7.30;99.90;;;;;;5142238;27;20203;-61
2024/02/01 00:32:11;;;;;;;12.02;8.43;;;7.30;99.90;;;;;;5141653;27;20222;-61
2024/02/01 00:34:40;;;;;;;13.07;7.90;;;7.30;99.90;;;;;;5141234;27;20198;-61
2024/02/01 00:37:07;;;;;;;10.15;8.45;;;7.20;99.90;;;;;;5140817;27;20191;-61
2024/02/01 00:39:34;;;;;;;10.27;9.18;;;7.00;99.90;;;;;;5141254;27;20206;-62
2024/02/01 00:42:00;;;;;;;11.77;8.95;;;6.80;99.90;;;;;;5140927;27;20222;-61
2024/02/01 00:44:27;;;;;;;10.85;9.13;;;6.70;99.90;;;;;;5140452;27;20199;-62
2024/02/01 00:46:54;;;;;;;14.20;9.55;;;6.50;99.90;;;;;;5140385;27;20203;-61
2024/02/01 00:49:22;;;;;;;11.95;9.43;;;6.40;99.90;;;;;;5139714;27;20199;-62
2024/02/01 00:51:49;;;;;;;11.82;9.93;;;6.30;99.90;;;;;;5139715;27;20736;-62
2024/02/01 00:54:16;;;;;;;13.35;11.07;;;6.20;99.90;;;;;;5140272;27;20214;-62
2024/02/01 00:56:42;;;;;;;12.57;10.43;;;6.10;99.90;;;;;;5140216;27;20679;-62
2024/02/01 00:59:09;;;;;;;14.73;10.57;;;6.10;99.90;;;;;;5140357;27;20734;-63
2024/02/01 01:01:36;;;;;;;12.18;10.63;;;6.00;99.90;;;;;;5140561;27;20313;-61
2024/02/01 01:04:03;;;;;;;12.73;9.90;;;6.00;99.90;;;;;;5140567;27;20202;-62
2024/02/01 01:06:31;;;;;;;13.88;11.10;;;5.90;99.90;;;;;;5140991;27;20248;-61
2024/02/01 01:08:58;;;;;;;16.50;13.65;;;5.90;99.90;;;;;;5139939;27;20202;-64
2024/02/01 01:11:25;;;;;;;14.95;10.95;;;5.90;99.90;;;;;;5139003;27;20267;-61
2024/02/01 01:13:52;;;;;;;18.05;11.85;;;5.90;99.90;;;;;;5139993;27;20278;-62
2024/02/01 01:16:19;;;;;;;20.23;12.95;;;5.80;99.90;;;;;;5140103;27;20306;-62
2024/02/01 01:18:46;;;;;;;18.10;12.27;;;5.80;99.90;;;;;;5144204;27;20215;-62
2024/02/01 01:21:13;;;;;;;14.52;11.40;;;5.80;99.90;;;;;;5146920;27;20223;-62
2024/02/01 01:23:41;;;;;;;16.70;12.52;;;5.80;99.90;;;;;;5145622;27;20213;-62
2024/02/01 01:26:08;;;;;;;12.45;10.70;;;5.80;99.90;;;;;;5144380;27;20201;-61
2024/02/01 01:28:34;;;;;;;17.27;13.80;;;5.80;99.90;;;;;;5143102;27;20199;-61
2024/02/01 01:31:01;;;;;;;18.50;13.57;;;5.80;99.90;;;;;;5144862;27;20194;-62
2024/02/01 01:33:28;;;;;;;17.40;13.88;;;5.80;99.90;;;;;;5142795;27;20202;-63
2024/02/01 01:35:55;;;;;;;14.60;12.75;;;5.80;99.90;;;;;;5139300;27;20208;-62
2024/02/01 01:38:22;;;;;;;15.63;13.10;;;5.80;99.90;;;;;;5138360;27;20215;-62
2024/02/01 01:40:50;;;;;;;16.50;13.63;;;5.80;99.90;;;;;;5137264;27;20206;-62
2024/02/01 01:43:17;;;;;;;18.77;14.35;;;5.80;99.90;;;;;;5144103;27;20199;-62
2024/02/01 01:45:43;;;;;;;15.82;12.95;;;5.80;99.90;;;;;;5152221;27;20199;-62
2024/02/01 01:48:10;;;;;;;17.67;14.45;;;5.90;99.90;;;;;;5151276;27;20203;-61
2024/02/01 01:50:38;;;;;;;19.40;14.35;;;5.90;99.90;;;;;;5138983;27;20203;-62
2024/02/01 01:53:05;;;;;;;14.85;12.15;;;5.90;99.90;;;;;;5137833;27;20221;-62
2024/02/01 01:55:32;;;;;;;15.93;13.00;;;5.90;99.90;;;;;;5137580;27;20240;-62
2024/02/01 01:58:02;;;;;;;13.38;11.98;;;5.90;99.90;;;;;;5137305;27;20700;-62
2024/02/01 02:00:29;;;;;;;19.75;13.80;;;5.90;99.90;;;;;;5137389;27;20213;-63
2024/02/01 02:02:55;;;;;;;15.95;12.85;;;6.00;99.90;;;;;;5137579;27;20313;-61
2024/02/01 02:05:22;;;;;;;13.98;12.57;;;6.00;99.90;;;;;;5137491;27;20209;-62
2024/02/01 02:07:49;;;;;;;15.20;12.20;;;6.00;99.90;;;;;;5137810;27;20198;-62
2024/02/01 02:10:16;;;;;;;15.38;11.88;;;6.00;99.90;;;;;;5137720;27;20198;-61
2024/02/01 02:12:43;;;;;;;15.23;13.00;;;6.00;99.90;;;;;;5137394;27;20230;-61
2024/02/01 02:15:13;;;;;;;17.00;13.68;;;6.00;99.90;;;;;;5137343;27;20659;-62
2024/02/01 02:17:40;;;;;;;14.98;13.23;;;6.10;99.90;;;;;;5137205;27;20274;-63
2024/02/01 02:20:17;;;;;;;15.98;14.00;;;6.10;99.90;;;;;;5136628;27;20618;-62
2024/02/01 02:22:46;;;;;;;15.35;12.77;;;6.10;99.90;;;;;;5136980;27;20589;-63
2024/02/01 02:25:14;;;;;;;17.25;13.93;;;6.10;99.90;;;;;;5137097;27;20620;-62
2024/02/01 02:27:41;;;;;;;16.50;13.38;;;6.10;99.90;;;;;;5136687;27;20255;-62
2024/02/01 02:30:11;;;;;;;14.75;12.40;;;6.10;99.90;;;;;;5137605;27;20248;-62
2024/02/01 02:32:38;;;;;;;16.60;14.18;;;6.10;99.90;;;;;;5136607;27;20230;-61
2024/02/01 02:35:07;;;;;;;14.77;12.20;;;6.20;99.90;;;;;;5136406;27;20665;-62
2024/02/01 02:37:34;;;;;;;15.70;11.93;;;6.20;99.90;;;;;;5136826;27;20199;-62
2024/02/01 02:40:04;;;;;;;13.60;11.45;;;6.20;99.90;;;;;;5136774;27;20226;-61
2024/02/01 02:42:31;;;;;;;13.13;11.00;;;6.20;99.90;;;;;;5138022;27;20225;-61
2024/02/01 02:44:58;;;;;;;13.00;11.57;;;6.30;99.90;;;;;;5138090;27;20544;-61
2024/02/01 02:47:24;;;;;;;15.27;12.10;;;6.30;99.90;;;;;;5138019;27;20203;-61
2024/02/01 02:49:51;;;;;;;16.00;13.13;;;6.30;99.90;;;;;;5138173;27;20203;-61
2024/02/01 02:52:18;;;;;;;13.68;10.68;;;6.30;99.90;;;;;;5137339;27;20248;-62
2024/02/01 02:54:45;;;;;;;19.90;12.52;;;6.30;99.90;;;;;;5137590;27;20203;-62
2024/02/01 02:57:13;;;;;;;16.70;12.35;;;6.30;99.90;;;;;;5136447;27;20672;-62
2024/02/01 02:59:41;;;;;;;15.27;12.30;;;6.40;99.90;;;;;;5136857;27;20574;-62
2024/02/01 03:02:08;;;;;;;14.77;12.20;;;6.40;99.90;;;;;;5136820;22;20228;-60
2024/02/01 03:04:34;;;;;;;13.07;11.77;;;6.40;99.90;;;;;;5094526;28;20207;-60
2024/02/01 03:07:01;;;;;;;12.18;10.43;;;6.40;99.90;;;;;;5094263;28;20201;-60
2024/02/01 03:09:28;;;;;;;13.98;12.38;;;6.40;99.90;;;;;;5094228;28;20200;-59
2024/02/01 03:11:55;;;;;;;12.13;10.23;;;6.50;99.90;;;;;;5094327;28;20232;-59
2024/02/01 03:14:23;;;;;;;13.23;11.85;;;6.50;99.90;;;;;;5097780;28;20212;-59
2024/02/01 03:16:49;;;;;;;12.35;11.00;;;6.50;99.90;;;;;;5098151;28;20322;-59
2024/02/01 03:19:17;;;;;;;13.05;11.27;;;6.60;99.90;;;;;;5098100;28;20218;-59
2024/02/01 03:21:43;;;;;;;14.50;11.05;;;6.60;99.90;;;;;;5097684;28;20682;-59
2024/02/01 03:24:10;;;;;;;15.23;12.20;;;6.60;99.90;;;;;;5095078;28;20353;-59
2024/02/01 03:26:37;;;;;;;13.25;11.27;;;6.60;99.90;;;;;;5093352;28;20203;-60
2024/02/01 03:29:05;;;;;;;12.70;11.25;;;6.70;99.90;;;;;;5093612;28;20223;-60
2024/02/01 03:31:36;;;;;;;13.90;10.68;;;6.70;99.90;;;;;;5093553;28;20216;-59
2024/02/01 03:34:05;;;;;;;12.68;10.38;;;6.70;99.90;;;;;;5093829;28;20188;-59
2024/02/01 03:36:34;;;;;;;12.60;11.30;;;6.70;99.90;;;;;;5093638;28;20291;-59
2024/02/01 03:39:01;;;;;;;12.93;10.70;;;6.70;99.90;;;;;;5098174;28;20215;-59
2024/02/01 03:41:29;;;;;;;9.98;8.93;;;6.70;99.90;;;;;;5098235;28;20243;-59
2024/02/01 03:43:55;;;;;;;13.65;10.85;;;6.70;99.90;;;;;;5098288;28;20224;-59
2024/02/01 03:46:24;;;;;;;11.05;9.95;;;6.70;99.90;;;;;;5099290;28;20200;-59
2024/02/01 03:48:52;;;;;;;11.38;10.15;;;6.70;99.90;;;;;;5095169;28;20557;-59
2024/02/01 03:51:20;;;;;;;12.30;11.10;;;6.80;99.90;;;;;;5095605;28;20224;-60
2024/02/01 03:53:47;;;;;;;11.27;9.95;;;6.80;99.90;;;;;;5093091;28;20269;-60
2024/02/01 03:56:14;;;;;;;11.57;10.38;;;6.80;99.90;;;;;;5092677;28;20200;-60
2024/02/01 03:58:41;;;;;;;13.75;10.30;;;6.80;99.90;;;;;;5092746;28;20639;-59
2024/02/01 04:01:08;;;;;;;12.82;9.93;;;6.90;99.90;;;;;;5092646;28;20224;-60
2024/02/01 04:03:40;;;;;;;9.98;8.98;;;6.90;99.90;;;;;;5092584;28;20188;-59
2024/02/01 04:06:08;;;;;;;10.85;9.68;;;6.90;99.90;;;;;;5092663;28;20189;-59
2024/02/01 04:08:34;;;;;;;11.02;9.48;;;6.90;99.90;;;;;;5092713;28;20197;-59
2024/02/01 04:13:06;;;;;;;9.07;8.00;;;7.00;99.90;;;;;;5090781;27;20562;-61
2024/02/01 04:15:33;;;;;;;9.50;8.05;;;7.00;99.90;;;;;;5090390;28;20200;-59
2024/02/01 04:18:02;;;;;;;9.38;8.35;;;7.10;99.90;;;;;;5090359;28;20201;-61
2024/02/01 04:20:29;;;;;;;9.85;8.60;;;7.10;99.90;;;;;;5089995;28;20200;-60
2024/02/01 04:22:56;;;;;;;9.20;8.30;;;7.10;99.90;;;;;;5089960;28;20567;-60
2024/02/01 04:25:24;;;;;;;9.50;8.52;;;7.10;99.90;;;;;;5090869;28;20203;-60
2024/02/01 04:27:50;;;;;;;8.95;8.05;;;7.20;99.90;;;;;;5089790;28;20200;-60
2024/02/01 04:30:19;;;;;;;9.18;8.15;;;7.20;99.90;;;;;;5089868;28;20205;-60
2024/02/01 04:32:46;;;;;;;10.40;9.40;;;7.20;99.90;;;;;;5090056;28;20331;-60
2024/02/01 04:35:14;;;;;;;11.02;9.15;;;7.20;99.90;;;;;;5089988;28;20208;-60
2024/02/01 04:37:41;;;;;;;10.82;9.30;;;7.20;99.90;;;;;;5089971;28;20207;-60
2024/02/01 04:40:09;;;;;;;10.02;8.85;;;7.20;99.90;;;;;;5090061;28;20204;-61
2024/02/01 04:42:36;;;;;;;11.57;9.23;;;7.20;99.90;;;;;;5089611;28;20686;-60
2024/02/01 04:45:04;;;;;;;11.43;10.07;;;7.20;99.90;;;;;;5089779;28;20196;-60
2024/02/01 04:47:33;;;;;;;10.93;9.70;;;7.20;99.90;;;;;;5089589;28;20200;-60
2024/02/01 04:50:00;;;;;;;11.40;10.15;;;7.10;99.90;;;;;;5089291;28;20617;-61
2024/02/01 04:52:27;;;;;;;11.52;9.70;;;7.10;99.90;;;;;;5089473;28;20232;-59
2024/02/01 04:54:54;;;;;;;10.43;9.32;;;7.10;99.90;;;;;;5090182;28;20231;-60
2024/02/01 04:57:21;;;;;;;12.23;9.15;;;7.10;99.90;;;;;;5089490;28;20223;-60
2024/02/01 04:59:48;;;;;;;9.75;8.75;;;7.00;99.90;;;;;;5089473;28;20249;-60
2024/02/01 05:02:15;;;;;;;10.38;9.27;;;7.00;99.90;;;;;;5089210;28;20593;-61
2024/02/01 05:04:44;;;;;;;12.52;9.43;;;7.00;99.90;;;;;;5089212;28;20690;-60
2024/02/01 05:07:11;;;;;;;12.00;10.02;;;7.00;99.90;;;;;;5089144;28;20679;-59
2024/02/01 05:09:39;;;;;;;12.68;10.05;;;7.00;99.90;;;;;;5089057;28;20670;-60
2024/02/01 05:12:07;;;;;;;12.88;10.30;;;7.00;99.90;;;;;;5089086;28;20229;-59
2024/02/01 05:14:34;;;;;;;12.20;10.60;;;7.00;99.90;;;;;;5089570;28;20283;-60
2024/02/01 05:17:01;;;;;;;12.93;10.57;;;7.00;99.90;;;;;;5089331;28;20582;-61
2024/02/01 05:19:27;;;;;;;15.00;11.02;;;7.00;99.90;;;;;;5088990;28;20662;-60
2024/02/01 05:21:56;;;;;;;15.05;11.40;;;7.00;99.90;;;;;;5089312;28;20224;-60
2024/02/01 05:24:23;;;;;;;12.82;10.90;;;7.00;99.90;;;;;;5076138;28;20582;-60
2024/02/01 05:26:51;;;;;;;15.57;12.23;;;7.00;99.90;;;;;;5075768;28;20212;-60
2024/02/01 05:29:19;;;;;;;13.05;10.30;;;7.00;99.90;;;;;;5075627;28;20205;-60
2024/02/01 05:31:48;;;;;;;15.93;11.23;;;7.00;99.90;;;;;;5075474;28;20228;-60
2024/02/01 05:34:15;;;;;;;14.57;11.65;;;7.00;99.90;;;;;;5075348;28;20208;-60
2024/02/01 05:36:42;;;;;;;13.63;11.02;;;7.10;99.90;;;;;;5075789;28;20201;-60
2024/02/01 05:39:24;;;;;;;17.35;11.85;;;7.10;99.90;;;;;;5075541;28;20212;-60
2024/02/01 05:41:52;;;;;;;12.32;8.40;;;7.10;99.90;;;;;;5075613;28;20281;-61
2024/02/01 05:44:19;;;;;;;12.10;9.40;;;7.10;99.90;;;;;;5075520;28;20201;-60
2024/02/01 05:46:47;;;;;;;11.48;8.57;;;7.10;99.90;;;;;;5075449;28;20201;-59
2024/02/01 05:49:18;;;;;;;12.70;10.05;;;7.10;99.90;;;;;;5074947;28;20736;-60
2024/02/01 05:51:45;;;;;;;11.18;7.20;;;7.10;99.90;;;;;;5075097;28;20221;-59
2024/02/01 05:54:14;;;;;;;14.43;8.10;;;7.10;99.90;;;;;;5074949;28;20201;-61
2024/02/01 05:56:42;;;;;;;8.40;7.55;;;7.10;99.90;;;;;;5074850;28;20553;-57
2024/02/01 05:59:10;;;;;;;10.05;7.18;;;7.00;99.90;;;;;;5075229;28;20201;-60
2024/02/01 06:01:36;;;;;;;9.15;7.20;;;7.00;99.90;;;;;;5074886;28;20217;-60
2024/02/01 06:04:04;;;;;;;8.43;7.05;;;6.90;99.90;;;;;;5074974;28;20201;-61
2024/02/01 06:06:31;;;;;;;8.77;6.50;;;6.90;99.90;;;;;;5075004;28;20204;-60
2024/02/01 06:08:58;;;;;;;10.55;6.72;;;6.80;99.90;;;;;;5075389;28;20216;-60
2024/02/01 06:11:26;;;;;;;11.57;7.32;;;6.70;99.90;;;;;;5077212;28;20229;-59
2024/02/01 06:13:53;;;;;;;10.65;7.35;;;6.70;99.90;;;;;;5078691;28;20686;-60
2024/02/01 06:16:20;;;;;;;10.95;7.07;;;6.70;99.90;;;;;;5080673;28;20216;-60
2024/02/01 06:18:47;;;;;;;8.48;6.93;;;6.60;99.90;;;;;;5080166;28;20220;-59
2024/02/01 06:21:17;;;;;;;11.25;7.85;;;6.60;99.90;;;;;;5079572;28;20248;-61
2024/02/01 06:23:44;;;;;;;9.52;7.05;;;6.60;99.90;;;;;;5084702;28;20259;-61
2024/02/01 06:26:19;;;;;;;11.45;7.07;;;6.50;99.90;;;;;;5080222;28;20205;-61
2024/02/01 06:28:47;;;;;;;12.15;7.72;;;6.50;99.90;;;;;;5078208;28;20639;-61
2024/02/01 06:31:14;;;;;;;9.85;7.25;;;6.50;99.90;;;;;;5074790;28;20224;-59
2024/02/01 06:33:41;;;;;;;10.90;7.07;;;6.40;99.90;;;;;;5074722;28;20213;-60
2024/02/01 06:36:13;;;;;;;10.43;7.97;;;6.40;99.90;;;;;;5073361;28;20208;-59
2024/02/01 06:39:06;;;;;;;11.38;7.75;;;6.30;99.90;;;;;;5074681;28;20195;-59
2024/02/01 06:41:46;;;;;;;11.35;7.13;;;6.30;99.90;;;;;;5074095;28;20225;-59
2024/02/01 06:44:25;;;;;;;23.80;8.98;;;6.30;99.90;;;;;;5074343;28;20185;-57
2024/02/01 06:47:11;;;;;;;10.43;7.65;;;6.30;99.90;;;;;;5074863;28;20209;-59
2024/02/01 06:50:00;;;;;;;9.70;5.35;;;6.30;99.90;;;;;;5074619;28;20235;-60
2024/02/01 06:52:39;;;;;;;11.80;7.60;;;6.30;99.90;;;;;;5074577;28;20282;-60
2024/02/01 06:55:24;;;;;;;10.40;6.97;;;6.30;99.90;;;;;;5074786;28;20239;-59
2024/02/01 06:58:03;;;;;;;10.93;6.60;;;6.30;99.90;;;;;;5073926;28;20193;-59
2024/02/01 07:03:32;;;;;;;14.43;6.90;;;6.20;99.90;;;;;;5074421;28;20188;-60
2024/02/01 07:06:06;;;;;;;7.53;5.90;;;6.20;99.90;;;;;;5074317;28;20276;-58
2024/02/01 07:08:45;;;;;;;11.02;6.50;;;6.10;99.90;;;;;;5073709;28;20637;-58
2024/02/01 07:11:14;;;;;;;14.15;6.55;;;6.10;99.90;;;;;;5074145;28;20290;-60
2024/02/01 07:13:57;;;;;;;9.18;5.65;;;6.00;99.90;;;;;;5074054;28;20248;-60
2024/02/01 07:16:35;;;;;;;12.50;6.30;;;6.00;99.90;;;;;;5074963;28;20189;-60
2024/02/01 07:19:12;;;;;;;12.80;8.40;;;6.00;99.90;;;;;;5074095;28;20189;-59
2024/02/01 07:24:38;;;;;;;11.05;5.70;;;5.90;99.90;;;;;;5074184;28;20196;-60
2024/02/01 07:57:51;;;;;;;13.88;3.65;;;6.20;99.90;;;;;;5073297;28;20184;-58
2024/02/01 08:00:19;;;;;;;10.13;3.78;;;6.20;99.90;;;;;;5073623;28;20304;-60
2024/02/01 08:02:49;;;;;;;13.23;5.03;;;6.10;99.90;;;;;;5073402;28;20225;-60
2024/02/01 08:08:03;;;;;;;8.93;3.00;;;6.10;99.90;;;;;;5073316;28;20688;-60
2024/02/01 08:10:29;;;;;;;10.05;3.40;;;6.10;99.90;;;;;;5073167;28;20196;-60
2024/02/01 08:13:04;;;;;;;12.15;4.55;;;6.10;99.90;;;;;;5072888;28;20709;-60
2024/02/01 08:15:31;;;;;;;12.38;4.70;;;6.10;99.90;;;;;;5073628;28;20251;-59
2024/02/01 08:17:58;;;;;;;11.27;3.90;;;6.10;99.90;;;;;;5073174;28;20212;-60
2024/02/01 08:20:27;;;;;;;13.45;3.50;;;6.20;99.90;;;;;;5073693;28;20201;-59
2024/02/01 08:22:53;;;;;;;10.85;3.78;;;6.20;99.90;;;;;;5073920;28;20315;-59
2024/02/01 08:25:20;;;;;;;10.43;3.03;;;6.20;99.90;;;;;;5073391;28;20208;-60
2024/02/01 08:27:52;;;;;;;17.67;3.47;;;6.20;99.90;;;;;;5073213;28;20212;-60
2024/02/01 08:30:20;;;;;;;12.48;3.67;;;6.20;99.90;;;;;;5073279;28;20639;-61
2024/02/01 08:32:46;;;;;;;11.60;3.70;;;6.20;99.90;;;;;;5072809;28;20236;-60
2024/02/01 08:35:14;;;;;;;11.10;3.50;;;6.20;99.90;;;;;;5072679;28;20641;-59
2024/02/01 08:37:42;;;;;;;11.82;4.13;;;6.20;99.90;;;;;;5072780;28;20258;-60
2024/02/01 08:40:16;;;;;;;11.70;3.97;;;6.20;99.90;;;;;;5072954;28;20211;-59
2024/02/01 08:42:46;;;;;;;21.40;4.40;;;6.20;99.90;;;;;;5073010;28;20304;-60
2024/02/01 08:45:14;;;;;;;11.02;3.83;;;6.20;99.90;;;;;;5073420;28;20186;-59
2024/02/01 08:47:41;;;;;;;10.02;3.05;;;6.20;99.90;;;;;;5074055;28;20209;-58
2024/02/01 08:50:09;;;;;;;27.25;5.03;;;6.20;99.90;;;;;;5075516;28;20231;-60
2024/02/01 08:52:37;;;;;;;16.95;3.58;;;6.20;99.90;;;;;;5077922;28;20231;-60
2024/02/01 08:55:10;;;;;;;15.13;3.72;;;6.20;99.90;;;;;;5079104;28;20201;-59
2024/02/01 08:57:38;;;;;;;23.98;4.60;;;6.20;99.90;;;;;;5080558;28;20181;-60
2024/02/01 09:00:21;;;;;;;14.95;3.90;;;6.20;99.90;;;;;;5084014;28;20216;-58
2024/02/01 09:03:02;;;;;;;14.00;4.10;;;6.20;99.90;;;;;;5076945;28;20598;-58
2024/02/01 09:05:30;;;;;;;10.48;3.13;;;6.30;99.90;;;;;;5081887;28;20558;-58
2024/02/01 09:07:57;;;;;;;15.13;3.55;;;6.30;99.90;;;;;;5079089;28;20200;-60
2024/02/01 09:10:25;;;;;;;16.58;4.18;;;6.30;99.90;;;;;;5078492;28;20200;-59
2024/02/01 09:12:52;;;;;;;14.68;3.42;;;6.30;99.90;;;;;;5076364;28;20220;-58
2024/02/01 09:15:19;;;;;;;15.02;4.32;;;6.40;99.90;;;;;;5078318;28;20216;-60
2024/02/01 09:17:46;;;;;;;16.92;3.47;;;6.40;99.90;;;;;;5079733;28;20203;-60
2024/02/01 09:20:18;;;;;;;20.90;4.50;;;6.40;99.90;;;;;;5086320;28;20205;-60
2024/02/01 09:22:46;;;;;;;19.02;4.03;;;6.50;99.90;;;;;;5085707;28;20388;-59
2024/02/01 09:25:13;;;;;;;23.17;3.88;;;6.60;99.90;;;;;;5086543;28;20542;-60
2024/02/01 09:27:44;;;;;;;18.67;3.80;;;6.70;99.90;;;;;;5082477;28;20208;-60
2024/02/01 09:30:12;;;;;;;13.10;3.45;;;6.80;99.90;;;;;;5075875;28;20195;-60
2024/02/01 09:32:39;;;;;;;19.67;3.85;;;6.90;99.90;;;;;;5076154;28;20274;-60
2024/02/01 09:35:06;;;;;;;19.23;3.47;;;6.90;99.90;;;;;;5076173;28;20254;-60
2024/02/01 09:37:32;;;;;;;15.07;4.43;;;6.90;99.90;;;;;;5075545;28;20200;-60
2024/02/01 09:40:01;;;;;;;7.95;2.80;;;6.90;99.90;;;;;;5076048;28;20212;-61
2024/02/01 09:42:28;;;;;;;16.55;4.05;;;6.90;99.90;;;;;;5078115;28;20220;-60
2024/02/01 09:44:58;;;;;;;20.80;4.25;;;7.00;99.90;;;;;;5075395;28;20213;-60
2024/02/01 09:47:25;;;;;;;16.92;5.40;;;7.10;99.90;;;;;;5075794;28;20571;-60
2024/02/01 09:49:54;;;;;;;12.45;3.90;;;7.10;99.90;;;;;;5075453;28;20254;-58
2024/02/01 09:52:21;;;;;;;12.80;4.32;;;7.10;99.90;;;;;;5075086;28;20221;-61
2024/02/01 09:54:49;;;;;;;21.60;3.80;;;7.10;99.90;;;;;;5075552;28;20576;-60
2024/02/01 09:57:17;;;;;;;18.95;5.63;;;7.10;99.90;;;;;;5075959;28;20200;-61
2024/02/01 09:59:44;;;;;;;24.30;4.30;;;7.00;99.90;;;;;;5076848;28;20216;-60
2024/02/01 10:02:12;;;;;;;20.35;4.20;;;7.00;99.90;;;;;;5075622;28;20718;-60
2024/02/01 10:04:40;;;;;;;14.68;5.45;;;6.90;99.90;;;;;;5076044;28;20646;-60
2024/02/01 10:07:09;;;;;;;19.40;3.65;;;6.90;99.90;;;;;;5075389;28;20288;-60
2024/02/01 10:09:37;;;;;;;18.48;3.55;;;7.00;99.90;;;;;;5075041;28;20254;-60
2024/02/01 10:12:06;;;;;;;21.13;4.22;;;7.10;99.90;;;;;;5075355;28;20239;-59
2024/02/01 10:14:37;;;;;;;15.05;4.40;;;7.20;99.90;;;;;;5075375;28;20311;-60
2024/02/01 10:17:06;;;;;;;16.15;3.75;;;7.30;99.90;;;;;;5075436;28;20208;-59
2024/02/01 10:19:37;;;;;;;13.50;3.45;;;7.30;99.90;;;;;;5075028;28;20205;-59
2024/02/01 10:22:08;;;;;;;17.25;3.90;;;7.40;99.90;;;;;;5075553;28;20738;-60
2024/02/01 10:24:44;;;;;;;10.75;3.50;;;7.40;99.90;;;;;;5075187;28;20205;-61
2024/02/01 10:27:13;;;;;;;16.80;3.55;;;7.40;99.90;;;;;;5076146;28;20185;-60
2024/02/01 10:29:42;;;;;;;13.18;3.50;;;7.40;99.90;;;;;;5074850;28;20205;-60
2024/02/01 10:32:13;;;;;;;15.60;4.47;;;7.40;99.90;;;;;;5074752;28;20220;-59
2024/02/01 10:34:45;;;;;;;18.27;4.07;;;7.50;99.90;;;;;;5075242;28;20704;-59
2024/02/01 10:37:15;;;;;;;12.48;4.32;;;7.50;99.90;;;;;;5075660;28;20189;-60
2024/02/01 10:39:50;;;;;;;10.55;3.33;;;7.50;99.90;;;;;;5074992;28;20235;-60
2024/02/01 10:42:22;;;;;;;16.90;3.60;;;7.60;99.90;;;;;;5075033;28;20266;-62
2024/02/01 10:44:51;;;;;;;12.25;3.30;;;7.60;99.90;;;;;;5075294;28;20196;-60
2024/02/01 10:47:21;;;;;;;16.13;3.75;;;7.60;99.90;;;;;;5074985;28;20201;-61
2024/02/01 10:49:53;;;;;;;16.77;3.70;;;7.50;99.90;;;;;;5075057;28;20189;-60
2024/02/01 10:52:21;;;;;;;12.95;4.32;;;7.60;99.90;;;;;;5075277;28;20229;-60
2024/02/01 10:54:49;;;;;;;12.27;3.50;;;7.60;99.90;;;;;;5074358;28;20698;-59
2024/02/01 10:57:17;;;;;;;18.27;4.60;;;7.50;99.90;;;;;;5074496;28;20204;-60
2024/02/01 10:59:47;;;;;;;18.70;3.72;;;7.50;99.90;;;;;;5074512;28;20212;-59
2024/02/01 11:02:15;;;;;;;14.95;4.18;;;7.50;99.90;;;;;;5073603;28;20221;-60
2024/02/01 11:04:45;;;;;;;35.13;5.57;;;7.60;99.90;;;;;;5074853;28;20193;-61
2024/02/01 11:07:21;;;;;;;11.27;3.78;;;7.60;99.90;;;;;;5074464;28;20577;-61
2024/02/01 11:09:50;;;;;;;17.02;4.13;;;7.60;99.90;;;;;;5075015;28;20189;-60
2024/02/01 11:12:24;;;;;;;18.88;4.25;;;7.60;99.90;;;;;;5074616;28;20229;-60
2024/02/01 11:14:51;;;;;;;21.73;4.75;;;7.70;99.90;;;;;;5074774;28;20213;-59
2024/02/01 11:17:19;;;;;;;18.50;3.30;;;7.60;99.90;;;;;;5075554;28;20201;-60
2024/02/01 11:19:49;;;;;;;12.75;3.83;;;7.50;99.90;;;;;;5076250;28;20239;-60
2024/02/01 11:22:18;;;;;;;14.68;3.90;;;7.50;99.90;;;;;;5073910;28;20225;-59
2024/02/01 11:24:46;;;;;;;12.95;3.70;;;7.40;99.90;;;;;;5074407;28;20571;-60
2024/02/01 11:27:14;;;;;;;21.52;4.55;;;7.40;99.90;;;;;;5073405;28;20220;-59
2024/02/01 11:29:46;;;;;;;12.10;3.40;;;7.40;99.90;;;;;;5073563;28;20205;-58
2024/02/01 11:32:17;;;;;;;11.80;3.72;;;7.50;99.90;;;;;;5073824;28;20312;-60
2024/02/01 11:34:49;;;;;;;11.77;3.90;;;7.60;99.90;;;;;;5073490;28;20209;-60
2024/02/01 11:37:17;;;;;;;16.73;3.60;;;7.70;99.90;;;;;;5073828;28;20644;-60
2024/02/01 11:39:47;;;;;;;14.80;3.97;;;7.80;99.90;;;;;;5073586;28;20269;-60
2024/02/01 11:42:15;;;;;;;11.23;3.42;;;7.80;99.90;;;;;;5074043;28;20225;-60
2024/02/01 11:44:42;;;;;;;14.10;3.97;;;7.90;99.90;;;;;;5073654;28;20211;-60
2024/02/01 11:47:10;;;;;;;16.90;4.85;;;7.90;99.90;;;;;;5073895;28;20205;-59
2024/02/01 11:49:37;;;;;;;13.55;4.30;;;8.00;99.90;;;;;;5074029;28;20528;-60
2024/02/01 11:52:15;;;;;;;15.15;4.55;;;8.00;99.90;;;;;;5078987;28;20235;-60
2024/02/01 11:54:45;;;;;;;16.60;4.68;;;8.10;99.90;;;;;;5081053;28;20304;-59
2024/02/01 11:57:17;;;;;;;14.77;3.75;;;8.10;99.90;;;;;;5077582;28;20514;-59
2024/02/01 11:59:44;;;;;;;18.92;4.43;;;8.10;99.90;;;;;;5074831;28;20708;-60
2024/02/01 12:02:11;;;;;;;15.18;4.40;;;8.10;99.90;;;;;;5074245;28;20232;-59
2024/02/01 12:04:40;;;;;;;11.30;4.18;;;8.10;99.90;;;;;;5073465;28;20197;-59
2024/02/01 12:07:08;;;;;;;14.75;5.40;;;8.00;99.90;;;;;;5073804;28;20215;-60
2024/02/01 12:09:36;;;;;;;12.52;3.67;;;8.00;99.90;;;;;;5073650;28;20201;-60
2024/02/01 12:12:03;;;;;;;10.13;4.25;;;8.00;99.90;;;;;;5073825;28;20235;-60
2024/02/01 12:14:32;;;;;;;13.55;3.60;;;8.00;99.90;;;;;;5073614;28;20229;-60
2024/02/01 12:17:01;;;;;;;14.07;3.33;;;8.00;99.90;;;;;;5073293;28;20204;-60
2024/02/01 12:19:37;;;;;;;12.95;3.40;;;8.00;99.90;;;;;;5073665;28;20204;-60
2024/02/01 12:22:05;;;;;;;12.30;3.10;;;8.00;99.90;;;;;;5073480;28;20235;-60
2024/02/01 12:24:34;;;;;;;16.33;4.95;;;7.90;99.90;;;;;;5073806;28;20197;-59
2024/02/01 12:27:01;;;;;;;14.20;4.05;;;7.90;99.90;;;;;;5073297;28;20667;-60
2024/02/01 12:29:28;;;;;;;19.05;3.92;;;7.80;99.90;;;;;;5073441;28;20251;-59
2024/02/01 12:31:57;;;;;;;15.02;3.78;;;7.90;99.90;;;;;;5072831;28;20309;-60
2024/02/01 12:34:25;;;;;;;12.40;3.50;;;8.00;99.90;;;;;;5076426;28;20221;-59
2024/02/01 12:36:51;;;;;;;14.02;4.82;;;8.10;99.90;;;;;;5076860;28;20229;-59
2024/02/01 12:39:18;;;;;;;13.18;5.40;;;8.20;99.90;;;;;;5077220;28;20200;-59
2024/02/01 12:41:46;;;;;;;17.30;4.10;;;8.30;99.90;;;;;;5077626;28;20217;-59
2024/02/01 12:44:14;;;;;;;11.02;2.97;;;8.20;99.90;;;;;;5077972;28;20249;-60
2024/02/01 12:46:42;;;;;;;19.70;4.30;;;8.10;99.90;;;;;;5078290;28;20205;-60
2024/02/01 12:49:12;;;;;;;17.17;4.93;;;8.10;99.90;;;;;;5078292;28;20291;-60
2024/02/01 12:51:41;;;;;;;10.15;4.03;;;8.10;99.90;;;;;;5078073;28;20308;-59
2024/02/01 12:54:09;;;;;;;12.88;4.20;;;8.00;99.90;;;;;;5077296;28;20213;-59
2024/02/01 12:56:36;;;;;;;12.38;3.75;;;7.90;99.90;;;;;;5077345;28;20205;-60
2024/02/01 12:59:04;;;;;;;12.95;3.22;;;7.80;99.90;;;;;;5076547;28;20209;-60
2024/02/01 13:01:32;;;;;;;15.93;3.33;;;7.80;99.90;;;;;;5076698;28;20580;-60
2024/02/01 13:03:59;;;;;;;11.05;3.22;;;7.80;99.90;;;;;;5077348;28;20197;-59
2024/02/01 13:06:27;;;;;;;15.05;3.00;;;7.80;99.90;;;;;;5077511;28;20224;-60
2024/02/01 13:08:54;;;;;;;17.98;4.93;;;7.80;99.90;;;;;;5076055;28;20215;-59
2024/02/01 13:11:27;;;;;;;11.23;3.45;;;7.80;99.90;;;;;;5075706;28;20652;-58
2024/02/01 13:13:55;;;;;;;14.85;3.92;;;7.80;99.90;;;;;;5075799;28;20213;-58
2024/02/01 13:16:24;;;;;;;15.20;3.60;;;7.80;99.90;;;;;;5076580;28;20207;-59
2024/02/01 13:18:50;;;;;;;8.13;2.72;;;7.80;99.90;;;;;;5076800;28;20250;-60
2024/02/01 13:21:17;;;;;;;11.10;3.33;;;7.80;99.90;;;;;;5076846;28;20228;-59
2024/02/01 13:23:46;;;;;;;17.55;3.42;;;7.80;99.90;;;;;;5076529;28;20201;-60
2024/02/01 13:26:13;;;;;;;9.80;3.47;;;7.90;99.90;;;;;;5076133;28;20205;-61
2024/02/01 13:28:39;;;;;;;15.13;3.03;;;8.00;99.90;;;;;;5076832;28;20208;-60
2024/02/01 13:31:06;;;;;;;13.93;3.20;;;8.10;99.90;;;;;;5076920;28;20201;-60
2024/02/01 13:33:35;;;;;;;15.27;4.43;;;8.10;99.90;;;;;;5077978;28;20291;-59